createdAt,value
2024-02-13T00:01:31.652Z,5.75
2024-02-13T00:03:33.374Z,1.67
2024-02-13T00:05:35.074Z,3.28
2024-02-13T00:07:38.003Z,1.10
2024-02-13T00:09:39.660Z,1.20
2024-02-13T00:11:42.287Z,2.08
2024-02-13T00:13:43.873Z,2.00
2024-02-13T00:15:45.540Z,1.83
2024-02-13T00:17:48.092Z,1.58
2024-02-13T00:19:50.316Z,1.98
2024-02-13T00:21:52.040Z,1.55
2024-02-13T00:23:53.802Z,2.03
2024-02-13T00:25:55.397Z,1.20
2024-02-13T00:27:57.215Z,2.28
2024-02-13T00:29:58.885Z,5.43
2024-02-13T00:32:00.432Z,1.40
2024-02-13T00:34:02.171Z,1.10
2024-02-13T00:36:04.513Z,1.10
2024-02-13T00:38:06.066Z,1.20
2024-02-13T00:40:09.496Z,1.30
2024-02-13T00:42:11.151Z,2.15
2024-02-13T00:44:12.736Z,4.70
2024-02-13T00:46:14.307Z,1.10
2024-02-13T00:48:17.010Z,1.33
2024-02-13T00:50:18.856Z,1.10
2024-02-13T00:52:20.589Z,1.67
2024-02-13T00:54:22.767Z,1.73
2024-02-13T00:56:24.355Z,1.70
2024-02-13T00:58:26.138Z,1.25
2024-02-13T01:00:27.910Z,2.65
2024-02-13T01:02:29.627Z,1.88
2024-02-13T01:04:31.521Z,2.85
2024-02-13T01:06:34.559Z,1.08
2024-02-13T01:08:36.595Z,2.70
2024-02-13T01:10:38.417Z,1.25
2024-02-13T01:12:40.119Z,1.00
2024-02-13T01:14:41.701Z,1.52
2024-02-13T01:16:43.246Z,1.10
2024-02-13T01:18:45.354Z,1.58
2024-02-13T01:20:47.095Z,1.13
2024-02-13T01:22:48.687Z,0.95
2024-02-13T01:24:50.290Z,1.15
2024-02-13T01:26:51.882Z,1.10
2024-02-13T01:28:53.429Z,1.00
2024-02-13T01:30:55.146Z,2.47
2024-02-13T01:32:56.826Z,1.10
2024-02-13T01:34:58.739Z,1.10
2024-02-13T01:37:00.566Z,1.55
2024-02-13T01:39:02.287Z,1.30
2024-02-13T01:41:04.075Z,1.17
2024-02-13T01:43:06.089Z,2.20
2024-02-13T01:45:08.696Z,1.10
2024-02-13T01:47:10.359Z,1.33
2024-02-13T01:49:12.838Z,1.25
2024-02-13T01:51:16.820Z,1.00
2024-02-13T01:53:21.327Z,1.42
2024-02-13T01:55:24.289Z,1.30
2024-02-13T01:57:25.886Z,2.05
2024-02-13T01:59:27.868Z,1.10
2024-02-13T02:01:29.454Z,1.10
2024-02-13T02:03:35.678Z,3.10
2024-02-13T02:05:37.878Z,1.10
2024-02-13T02:07:40.917Z,1.00
2024-02-13T02:09:43.742Z,1.27
2024-02-13T02:11:45.469Z,1.25
2024-02-13T02:13:47.004Z,1.20
2024-02-13T02:15:48.452Z,1.08
2024-02-13T02:17:51.198Z,1.15
2024-02-13T02:19:52.708Z,1.10
2024-02-13T02:21:54.160Z,1.10
2024-02-13T02:23:56.165Z,1.10
2024-02-13T02:25:57.711Z,2.17
2024-02-13T02:27:59.163Z,1.10
2024-02-13T02:30:00.879Z,1.10
2024-02-13T02:32:02.393Z,1.63
2024-02-13T02:34:04.031Z,1.17
2024-02-13T02:36:06.285Z,1.00
2024-02-13T02:38:08.243Z,1.75
2024-02-13T02:40:10.118Z,5.30
2024-02-13T02:42:11.930Z,1.17
2024-02-13T02:44:14.142Z,1.42
2024-02-13T02:46:15.689Z,1.15
2024-02-13T02:48:17.321Z,1.95
2024-02-13T02:50:19.080Z,1.30
2024-02-13T02:52:20.590Z,2.75
2024-02-13T02:54:22.083Z,1.15
2024-02-13T02:56:23.576Z,1.63
2024-02-13T02:58:25.109Z,1.88
2024-02-13T03:00:26.998Z,1.48
2024-02-13T03:02:28.457Z,2.13
2024-02-13T03:04:29.993Z,3.40
2024-02-13T03:06:32.434Z,1.95
2024-02-13T03:08:34.109Z,1.50
2024-02-13T03:10:35.608Z,1.58
2024-02-13T03:12:38.154Z,1.20
2024-02-13T03:14:39.725Z,1.20
2024-02-13T03:16:41.238Z,3.28
2024-02-13T03:18:42.921Z,1.38
2024-02-13T03:20:45.281Z,0.93
2024-02-13T03:22:46.785Z,1.30
2024-02-13T03:24:48.436Z,2.20
2024-02-13T03:26:49.936Z,1.38
2024-02-13T03:28:51.504Z,1.27
2024-02-13T03:30:53.019Z,2.85
2024-02-13T03:32:54.750Z,1.20
2024-02-13T03:34:57.831Z,4.40
2024-02-13T03:36:59.829Z,1.80
2024-02-13T03:39:01.311Z,2.70
2024-02-13T03:41:02.790Z,2.05
2024-02-13T03:43:04.767Z,1.30
2024-02-13T03:45:06.636Z,1.17
2024-02-13T03:47:08.101Z,1.33
2024-02-13T03:49:10.368Z,2.30
2024-02-13T03:51:11.913Z,1.50
2024-02-13T03:53:13.643Z,2.55
2024-02-13T03:55:15.488Z,1.00
2024-02-13T03:57:16.961Z,0.95
2024-02-13T03:59:18.601Z,2.03
2024-02-13T04:01:20.118Z,1.15
2024-02-13T04:03:21.583Z,1.17
2024-02-13T04:05:23.230Z,1.40
2024-02-13T04:07:25.036Z,1.35
2024-02-13T04:09:26.488Z,2.85
2024-02-13T04:11:28.135Z,6.13
2024-02-13T04:13:29.739Z,0.90
2024-02-13T04:15:31.206Z,1.33
2024-02-13T04:17:32.770Z,1.55
2024-02-13T04:19:34.395Z,1.45
2024-02-13T04:21:35.897Z,1.30
2024-02-13T04:23:37.625Z,3.83
2024-02-13T04:25:39.199Z,1.92
2024-02-13T04:27:40.680Z,1.45
2024-02-13T04:29:42.466Z,0.82
2024-02-13T04:31:44.020Z,2.22
2024-02-13T04:33:45.821Z,6.40
2024-02-13T04:35:47.711Z,1.30
2024-02-13T04:37:49.193Z,2.13
2024-02-13T04:39:50.662Z,1.13
2024-02-13T04:41:52.264Z,1.60
2024-02-13T04:43:53.759Z,1.40
2024-02-13T04:45:55.199Z,1.23
2024-02-13T04:47:56.742Z,1.85
2024-02-13T04:50:00.941Z,1.60
2024-02-13T04:52:02.399Z,2.45
2024-02-13T04:54:04.158Z,1.75
2024-02-13T04:56:05.849Z,1.80
2024-02-13T04:58:07.331Z,1.85
2024-02-13T05:00:09.330Z,1.48
2024-02-13T05:02:10.858Z,1.80
2024-02-13T05:04:12.454Z,3.97
2024-02-13T05:06:14.757Z,2.75
2024-02-13T05:08:16.856Z,2.13
2024-02-13T05:10:18.376Z,1.35
2024-02-13T05:12:19.970Z,1.85
2024-02-13T05:14:21.598Z,2.90
2024-02-13T05:16:23.966Z,2.95
2024-02-13T05:18:25.837Z,2.30
2024-02-13T05:20:27.527Z,15.20
2024-02-13T05:22:28.992Z,1.55
2024-02-13T05:24:30.576Z,1.10
2024-02-13T05:26:32.129Z,7.88
2024-02-13T05:28:33.609Z,2.40
2024-02-13T05:30:35.430Z,4.80
2024-02-13T05:32:37.309Z,1.88
2024-02-13T05:34:38.893Z,1.98
2024-02-13T05:36:40.402Z,5.03
2024-02-13T05:38:43.455Z,7.05
2024-02-13T05:40:44.918Z,6.78
2024-02-13T05:42:46.536Z,2.00
2024-02-13T05:44:48.256Z,2.88
2024-02-13T05:46:49.817Z,2.40
2024-02-13T05:48:51.286Z,1.90
2024-02-13T05:50:52.933Z,1.65
2024-02-13T05:52:54.568Z,3.00
2024-02-13T05:54:56.348Z,2.13
2024-02-13T05:56:57.932Z,6.18
2024-02-13T05:59:00.074Z,7.15
2024-02-13T06:01:01.839Z,1.48
2024-02-13T06:03:03.811Z,1.70
2024-02-13T06:05:05.711Z,2.75
2024-02-13T06:07:07.319Z,3.65
2024-02-13T06:09:09.040Z,4.18
2024-02-13T06:11:10.654Z,2.15
2024-02-13T06:13:12.310Z,2.78
2024-02-13T06:15:13.851Z,2.33
2024-02-13T06:17:15.360Z,2.63
2024-02-13T06:19:17.173Z,5.20
2024-02-13T06:21:19.211Z,7.28
2024-02-13T06:23:21.567Z,1.67
2024-02-13T06:25:23.169Z,1.75
2024-02-13T06:27:24.761Z,1.75
2024-02-13T06:29:26.261Z,4.68
2024-02-13T06:31:32.705Z,6.50
2024-02-13T06:33:34.428Z,4.43
2024-02-13T06:35:36.076Z,5.35
2024-02-13T06:37:37.583Z,1.77
2024-02-13T06:39:39.187Z,3.38
2024-02-13T06:41:41.281Z,5.05
2024-02-13T06:43:42.821Z,6.15
2024-02-13T06:45:44.581Z,5.32
2024-02-13T06:47:46.087Z,10.73
2024-02-13T06:49:47.705Z,25.92
2024-02-13T06:51:49.294Z,32.95
2024-02-13T06:53:50.957Z,37.45
2024-02-13T06:55:52.586Z,38.60
2024-02-13T06:57:54.089Z,33.50
2024-02-13T06:59:55.741Z,30.48
2024-02-13T07:01:57.507Z,23.40
2024-02-13T07:03:59.072Z,23.55
2024-02-13T07:06:00.756Z,24.90
2024-02-13T07:08:02.529Z,24.85
2024-02-13T07:10:05.078Z,28.75
2024-02-13T07:12:06.962Z,30.48
2024-02-13T07:14:08.486Z,33.22
2024-02-13T07:16:09.980Z,23.58
2024-02-13T07:18:14.540Z,25.58
2024-02-13T07:20:16.378Z,31.98
2024-02-13T07:22:18.392Z,30.83
2024-02-13T07:24:19.865Z,30.95
2024-02-13T07:26:21.534Z,32.08
2024-02-13T07:28:23.037Z,29.40
2024-02-13T07:30:24.584Z,24.55
2024-02-13T07:32:26.252Z,27.33
2024-02-13T07:34:28.261Z,25.90
2024-02-13T07:36:29.823Z,31.85
2024-02-13T07:38:31.421Z,24.92
2024-02-13T07:40:33.241Z,22.90
2024-02-13T07:42:34.832Z,24.10
2024-02-13T07:44:36.327Z,21.60
2024-02-13T07:46:38.221Z,20.85
2024-02-13T07:48:39.780Z,23.33
2024-02-13T07:50:41.385Z,24.75
2024-02-13T07:52:42.916Z,20.75
2024-02-13T07:54:45.550Z,17.67
2024-02-13T07:56:47.089Z,20.92
2024-02-13T07:58:48.629Z,18.90
2024-02-13T08:00:50.376Z,21.52
2024-02-13T08:02:51.936Z,22.02
2024-02-13T08:04:53.705Z,19.13
2024-02-13T08:06:55.264Z,22.38
2024-02-13T08:08:56.787Z,21.90
2024-02-13T08:10:58.581Z,19.00
2024-02-13T08:13:00.226Z,21.45
2024-02-13T08:15:01.765Z,21.15
2024-02-13T08:17:06.365Z,23.30
2024-02-13T08:19:08.090Z,23.17
2024-02-13T08:21:09.694Z,20.58
2024-02-13T08:23:12.599Z,21.38
2024-02-13T08:25:14.165Z,21.73
2024-02-13T08:27:15.647Z,21.63
2024-02-13T08:29:17.234Z,22.63
2024-02-13T08:31:18.760Z,20.00
2024-02-13T08:33:20.667Z,19.63
2024-02-13T08:35:22.530Z,21.35
2024-02-13T08:37:24.315Z,21.35
2024-02-13T08:39:25.768Z,19.90
2024-02-13T08:41:27.452Z,23.63
2024-02-13T08:43:29.007Z,18.75
2024-02-13T08:45:30.515Z,18.23
2024-02-13T08:47:32.089Z,19.45
2024-02-13T08:49:33.901Z,19.17
2024-02-13T08:51:37.878Z,22.42
2024-02-13T08:53:40.504Z,23.92
2024-02-13T08:55:42.297Z,27.15
2024-02-13T08:57:43.778Z,21.42
2024-02-13T08:59:45.404Z,23.92
2024-02-13T09:01:47.068Z,24.00
2024-02-13T09:03:49.284Z,25.17
2024-02-13T09:05:50.880Z,23.30
2024-02-13T09:07:52.580Z,22.70
2024-02-13T09:09:54.070Z,21.23
2024-02-13T09:11:55.646Z,16.83
2024-02-13T09:13:57.541Z,19.55
2024-02-13T09:15:58.990Z,19.92
2024-02-13T09:18:00.757Z,19.67
2024-02-13T09:20:02.630Z,24.73
2024-02-13T09:22:04.320Z,19.52
2024-02-13T09:24:06.595Z,20.02
2024-02-13T09:26:08.238Z,17.60
2024-02-13T09:28:09.694Z,16.63
2024-02-13T09:30:11.797Z,26.15
2024-02-13T09:32:13.601Z,19.33
2024-02-13T09:34:15.334Z,17.42
2024-02-13T09:36:17.273Z,17.90
2024-02-13T09:38:19.144Z,17.38
2024-02-13T09:40:21.345Z,18.10
2024-02-13T09:42:24.851Z,14.75
2024-02-13T09:44:26.794Z,14.82
2024-02-13T09:46:28.641Z,15.35
2024-02-13T09:48:34.497Z,16.48
2024-02-13T09:50:43.943Z,19.10
2024-02-13T09:52:53.285Z,12.07
2024-02-13T09:54:54.877Z,14.68
2024-02-13T09:56:56.809Z,12.27
2024-02-13T09:58:59.830Z,12.88
2024-02-13T10:01:02.135Z,16.25
2024-02-13T10:03:04.715Z,14.02
2024-02-13T10:05:08.442Z,10.00
2024-02-13T10:09:13.061Z,10.43
2024-02-13T10:11:14.814Z,8.10
2024-02-13T10:13:16.435Z,9.35
2024-02-13T10:15:17.905Z,12.43
2024-02-13T10:17:19.468Z,12.73
2024-02-13T10:19:21.061Z,8.20
2024-02-13T10:21:25.960Z,8.57
2024-02-13T10:23:27.756Z,8.02
2024-02-13T10:25:29.306Z,7.22
2024-02-13T10:27:30.775Z,8.93
2024-02-13T10:29:44.852Z,10.13
2024-02-13T10:33:48.325Z,9.20
2024-02-13T10:35:50.189Z,8.70
2024-02-13T10:37:51.820Z,8.30
2024-02-13T10:39:55.760Z,6.97
2024-02-13T10:41:59.203Z,7.28
2024-02-13T10:44:01.126Z,9.30
2024-02-13T10:46:05.046Z,8.50
2024-02-13T10:48:31.959Z,8.13
2024-02-13T10:50:35.370Z,10.05
2024-02-13T10:52:38.314Z,6.55
2024-02-13T10:54:44.179Z,10.70
2024-02-13T10:56:46.721Z,7.82
2024-02-13T10:58:50.602Z,7.05
2024-02-13T11:00:53.321Z,8.13
2024-02-13T11:02:55.361Z,8.43
2024-02-13T11:04:58.283Z,7.18
2024-02-13T11:07:00.166Z,9.70
2024-02-13T11:09:02.810Z,7.25
2024-02-13T11:11:15.767Z,8.40
2024-02-13T11:13:20.342Z,6.88
2024-02-13T11:15:25.513Z,13.63
2024-02-13T11:17:30.911Z,8.32
2024-02-13T11:19:47.551Z,9.45
2024-02-13T11:21:51.994Z,11.82
2024-02-13T11:23:58.748Z,9.15
2024-02-13T11:26:01.303Z,9.85
2024-02-13T11:28:06.005Z,7.38
2024-02-13T11:30:07.908Z,10.13
2024-02-13T11:32:09.456Z,5.30
2024-02-13T11:34:11.835Z,9.52
2024-02-13T11:36:13.694Z,11.38
2024-02-13T11:38:18.638Z,9.40
2024-02-13T11:40:20.633Z,7.13
2024-02-13T11:42:22.299Z,9.00
2024-02-13T11:44:24.287Z,18.63
2024-02-13T11:46:25.891Z,10.20
2024-02-13T11:48:31.580Z,5.18
2024-02-13T11:50:36.794Z,9.18
2024-02-13T11:52:38.628Z,7.18
2024-02-13T11:54:40.385Z,5.70
2024-02-13T11:56:42.400Z,7.43
2024-02-13T11:58:44.146Z,9.85
2024-02-13T12:00:56.103Z,6.30
2024-02-13T12:02:58.162Z,7.70
2024-02-13T12:05:00.079Z,10.27
2024-02-13T12:07:02.020Z,8.38
2024-02-13T12:09:03.941Z,8.07
2024-02-13T12:11:05.943Z,5.95
2024-02-13T12:13:07.609Z,5.32
2024-02-13T12:15:09.801Z,10.52
2024-02-13T12:17:12.287Z,9.02
2024-02-13T12:19:15.665Z,7.13
2024-02-13T12:21:17.171Z,8.85
2024-02-13T12:23:19.175Z,11.02
2024-02-13T12:25:20.936Z,9.32
2024-02-13T12:27:22.415Z,8.50
2024-02-13T12:29:25.529Z,7.85
2024-02-13T12:31:29.365Z,7.32
2024-02-13T12:33:31.280Z,6.13
2024-02-13T12:35:33.587Z,7.40
2024-02-13T12:37:35.294Z,9.40
2024-02-13T12:39:36.927Z,11.23
2024-02-13T12:41:38.608Z,8.68
2024-02-13T12:43:40.232Z,9.60
2024-02-13T12:45:44.874Z,6.75
2024-02-13T12:47:47.210Z,9.52
2024-02-13T12:49:49.315Z,11.90
2024-02-13T12:51:50.960Z,8.88
2024-02-13T12:53:52.696Z,12.95
2024-02-13T12:55:54.327Z,6.13
2024-02-13T12:57:55.797Z,5.78
2024-02-13T12:59:57.528Z,48.10
2024-02-13T13:01:59.397Z,8.48
2024-02-13T13:04:00.915Z,24.05
2024-02-13T13:06:02.745Z,10.32
2024-02-13T13:08:04.676Z,10.20
2024-02-13T13:10:06.607Z,7.82
2024-02-13T13:12:09.813Z,9.13
2024-02-13T13:14:13.529Z,5.85
2024-02-13T13:16:14.959Z,8.73
2024-02-13T13:18:17.994Z,9.57
2024-02-13T13:20:21.288Z,10.27
2024-02-13T13:22:22.786Z,13.10
2024-02-13T13:24:24.427Z,11.25
2024-02-13T13:26:26.884Z,11.25
2024-02-13T13:28:28.514Z,9.77
2024-02-13T13:30:30.407Z,9.45
2024-02-13T13:32:32.424Z,12.15
2024-02-13T13:34:34.199Z,12.45
2024-02-13T13:36:36.422Z,15.05
2024-02-13T13:38:38.023Z,10.55
2024-02-13T13:40:40.116Z,7.03
2024-02-13T13:42:41.734Z,9.63
2024-02-13T13:44:43.227Z,10.93
2024-02-13T13:46:44.702Z,12.07
2024-02-13T13:48:46.430Z,11.18
2024-02-13T13:50:48.772Z,10.15
2024-02-13T13:52:52.160Z,12.23
2024-02-13T13:54:53.886Z,9.38
2024-02-13T13:56:55.442Z,8.38
2024-02-13T13:58:57.041Z,6.68
2024-02-13T14:01:02.061Z,6.30
2024-02-13T14:03:06.778Z,7.43
2024-02-13T14:05:08.429Z,9.80
2024-02-13T14:07:09.945Z,46.00
2024-02-13T14:09:11.739Z,15.50
2024-02-13T14:11:13.208Z,13.07
2024-02-13T14:13:14.839Z,9.65
2024-02-13T14:15:16.660Z,17.10
2024-02-13T14:17:18.257Z,8.85
2024-02-13T14:19:20.094Z,11.05
2024-02-13T14:21:22.126Z,10.82
2024-02-13T14:23:23.712Z,13.38
2024-02-13T14:25:25.353Z,12.95
2024-02-13T14:27:27.137Z,26.92
2024-02-13T14:29:28.651Z,11.57
2024-02-13T14:31:30.147Z,15.27
2024-02-13T14:33:31.939Z,13.98
2024-02-13T14:35:34.890Z,19.88
2024-02-13T14:37:36.549Z,17.55
2024-02-13T14:39:38.570Z,19.98
2024-02-13T14:41:40.110Z,16.58
2024-02-13T14:43:41.760Z,16.05
2024-02-13T14:45:43.464Z,24.52
2024-02-13T14:47:45.020Z,20.05
2024-02-13T14:49:47.138Z,15.00
2024-02-13T14:51:49.106Z,17.98
2024-02-13T14:53:50.682Z,12.95
2024-02-13T14:55:52.512Z,19.55
2024-02-13T14:58:06.059Z,10.20
2024-02-13T15:00:14.477Z,20.50
2024-02-13T15:02:16.386Z,31.02
2024-02-13T15:04:18.175Z,9.55
2024-02-13T15:06:22.796Z,19.58
2024-02-13T15:08:25.101Z,48.45
2024-02-13T15:10:26.830Z,45.33
2024-02-13T15:12:28.289Z,56.70
2024-02-13T15:14:30.185Z,79.10
2024-02-13T15:16:31.689Z,27.60
2024-02-13T15:18:34.020Z,31.08
2024-02-13T15:20:35.676Z,15.27
2024-02-13T15:22:37.306Z,20.58
2024-02-13T15:24:39.364Z,18.75
2024-02-13T15:26:40.879Z,18.17
2024-02-13T15:28:42.600Z,34.50
2024-02-13T15:30:44.194Z,39.50
2024-02-13T15:32:45.819Z,13.43
2024-02-13T15:34:47.473Z,32.50
2024-02-13T15:36:48.941Z,34.35
2024-02-13T15:38:50.622Z,39.17
2024-02-13T15:40:52.514Z,34.72
2024-02-13T15:42:53.996Z,40.30
2024-02-13T15:44:55.658Z,44.45
2024-02-13T15:46:57.211Z,33.78
2024-02-13T15:48:58.841Z,63.95
2024-02-13T15:51:00.861Z,54.08
2024-02-13T15:53:02.415Z,41.58
2024-02-13T15:55:04.070Z,44.38
2024-02-13T15:57:05.810Z,36.20
2024-02-13T15:59:07.368Z,57.60
2024-02-13T16:01:08.869Z,30.83
2024-02-13T16:03:10.689Z,46.13
2024-02-13T16:05:12.492Z,31.67
2024-02-13T16:07:18.278Z,42.13
2024-02-13T16:09:21.730Z,37.38
2024-02-13T16:11:23.317Z,63.38
2024-02-13T16:13:27.498Z,147.20
2024-02-13T16:15:30.127Z,219.52
2024-02-13T16:17:32.044Z,116.32
2024-02-13T16:19:33.653Z,89.03
2024-02-13T16:21:35.202Z,170.60
2024-02-13T16:23:37.043Z,104.38
2024-02-13T16:25:38.562Z,29.42
2024-02-13T16:27:41.158Z,102.57
2024-02-13T16:29:42.882Z,78.88
2024-02-13T16:31:44.421Z,91.13
2024-02-13T16:33:46.102Z,37.40
2024-02-13T16:35:48.100Z,53.83
2024-02-13T16:37:49.617Z,39.80
2024-02-13T16:39:51.102Z,41.95
2024-02-13T16:41:53.772Z,31.35
2024-02-13T16:43:55.320Z,34.80
2024-02-13T16:45:57.010Z,64.13
2024-02-13T16:47:58.772Z,35.33
2024-02-13T16:50:00.470Z,34.13
2024-02-13T16:52:02.797Z,49.08
2024-02-13T16:54:04.927Z,67.55
2024-02-13T16:56:06.835Z,66.60
2024-02-13T16:58:08.358Z,52.00
2024-02-13T17:00:11.054Z,37.78
2024-02-13T17:02:12.553Z,45.88
2024-02-13T17:04:14.325Z,34.33
2024-02-13T17:06:16.134Z,43.38
2024-02-13T17:08:17.787Z,26.70
2024-02-13T17:10:19.536Z,21.40
2024-02-13T17:12:21.133Z,26.88
2024-02-13T17:14:22.603Z,28.58
2024-02-13T17:16:24.233Z,88.30
2024-02-13T17:18:26.066Z,87.75
2024-02-13T17:20:27.682Z,113.40
2024-02-13T17:22:29.289Z,29.88
2024-02-13T17:24:30.990Z,23.40
2024-02-13T17:26:32.520Z,26.50
2024-02-13T17:28:34.140Z,30.10
2024-02-13T17:30:35.868Z,22.77
2024-02-13T17:32:37.425Z,17.92
2024-02-13T17:34:39.367Z,9.98
2024-02-13T17:36:41.017Z,11.95
2024-02-13T17:38:42.889Z,25.05
2024-02-13T17:40:44.581Z,13.02
2024-02-13T17:42:46.047Z,15.02
2024-02-13T17:44:47.713Z,26.20
2024-02-13T17:46:49.387Z,34.35
2024-02-13T17:48:51.057Z,34.65
2024-02-13T17:50:52.858Z,19.15
2024-02-13T17:52:54.346Z,41.65
2024-02-13T17:54:55.946Z,41.95
2024-02-13T17:56:57.608Z,31.65
2024-02-13T17:58:59.268Z,26.27
2024-02-13T18:01:00.785Z,28.27
2024-02-13T18:03:02.567Z,26.35
2024-02-13T18:05:04.244Z,22.13
2024-02-13T18:07:05.781Z,16.80
2024-02-13T18:09:07.707Z,26.48
2024-02-13T18:11:09.376Z,23.80
2024-02-13T18:13:10.838Z,27.58
2024-02-13T18:15:12.613Z,24.75
2024-02-13T18:17:14.226Z,20.38
2024-02-13T18:19:15.946Z,19.55
2024-02-13T18:21:17.784Z,35.60
2024-02-13T18:23:19.527Z,26.88
2024-02-13T18:25:21.040Z,39.00
2024-02-13T18:27:22.951Z,24.35
2024-02-13T18:29:24.579Z,36.33
2024-02-13T18:31:26.053Z,30.02
2024-02-13T18:33:27.788Z,20.67
2024-02-13T18:35:29.550Z,34.13
2024-02-13T18:37:31.051Z,31.45
2024-02-13T18:39:32.648Z,19.75
2024-02-13T18:41:34.333Z,26.60
2024-02-13T18:43:35.840Z,24.55
2024-02-13T18:45:37.338Z,27.05
2024-02-13T18:47:38.926Z,25.17
2024-02-13T18:49:40.495Z,27.70
2024-02-13T18:51:42.109Z,41.83
2024-02-13T18:53:43.649Z,25.13
2024-02-13T18:55:45.108Z,24.60
2024-02-13T18:57:46.849Z,20.02
2024-02-13T18:59:48.814Z,20.45
2024-02-13T19:01:50.442Z,18.50
2024-02-13T19:03:52.125Z,22.92
2024-02-13T19:05:53.831Z,23.48
2024-02-13T19:07:55.434Z,24.55
2024-02-13T19:09:57.369Z,28.48
2024-02-13T19:11:59.012Z,34.63
2024-02-13T19:14:00.687Z,36.38
2024-02-13T19:16:02.167Z,27.08
2024-02-13T19:18:04.260Z,41.97
2024-02-13T19:20:06.642Z,53.40
2024-02-13T19:22:08.152Z,45.75
2024-02-13T19:24:10.457Z,112.35
2024-02-13T19:26:11.946Z,59.85
2024-02-13T19:28:13.687Z,59.83
2024-02-13T19:30:15.398Z,49.60
2024-02-13T19:32:16.869Z,40.92
2024-02-13T19:34:18.777Z,50.90
2024-02-13T19:36:20.671Z,33.58
2024-02-13T19:38:22.238Z,27.08
2024-02-13T19:40:23.928Z,19.90
2024-02-13T19:42:25.541Z,20.58
2024-02-13T19:44:27.062Z,29.35
2024-02-13T19:46:28.665Z,33.88
2024-02-13T19:48:30.459Z,38.28
2024-02-13T19:50:32.110Z,89.60
2024-02-13T19:52:33.681Z,98.22
2024-02-13T19:54:35.196Z,49.45
2024-02-13T19:56:36.877Z,43.65
2024-02-13T19:58:38.381Z,43.92
2024-02-13T20:00:39.860Z,35.17
2024-02-13T20:02:41.376Z,27.45
2024-02-13T20:04:42.971Z,38.50
2024-02-13T20:06:44.997Z,28.65
2024-02-13T20:08:46.598Z,49.50
2024-02-13T20:10:48.188Z,33.42
2024-02-13T20:12:50.068Z,28.13
2024-02-13T20:14:51.600Z,27.35
2024-02-13T20:16:53.094Z,38.85
2024-02-13T20:18:54.946Z,56.08
2024-02-13T20:20:56.521Z,46.35
2024-02-13T20:22:58.129Z,43.03
2024-02-13T20:24:59.604Z,46.03
2024-02-13T20:27:02.001Z,59.75
2024-02-13T20:29:03.642Z,38.67
2024-02-13T20:31:05.156Z,36.55
2024-02-13T20:33:06.714Z,40.40
2024-02-13T20:35:08.634Z,22.50
2024-02-13T20:37:10.780Z,24.63
2024-02-13T20:39:12.309Z,38.65
2024-02-13T20:41:13.995Z,79.88
2024-02-13T20:43:15.650Z,50.45
2024-02-13T20:45:22.378Z,50.33
2024-02-13T20:47:25.655Z,68.25
2024-02-13T20:49:27.277Z,52.35
2024-02-13T20:51:32.833Z,122.65
2024-02-13T20:53:34.481Z,107.07
2024-02-13T20:55:35.973Z,97.22
2024-02-13T20:57:37.423Z,83.28
2024-02-13T20:59:39.051Z,83.97
2024-02-13T21:01:40.695Z,107.00
2024-02-13T21:03:42.168Z,79.57
2024-02-13T21:05:43.708Z,91.95
2024-02-13T21:07:45.337Z,87.25
2024-02-13T21:09:47.419Z,116.43
2024-02-13T21:11:49.066Z,104.82
2024-02-13T21:13:50.697Z,91.32
2024-02-13T21:15:52.164Z,84.40
2024-02-13T21:17:53.872Z,79.30
2024-02-13T21:19:55.595Z,35.70
2024-02-13T21:21:57.118Z,46.15
2024-02-13T21:23:58.648Z,33.53
2024-02-13T21:26:00.129Z,35.92
2024-02-13T21:28:01.575Z,39.30
2024-02-13T21:30:03.777Z,47.50
2024-02-13T21:32:05.620Z,57.75
2024-02-13T21:34:07.563Z,49.97
2024-02-13T21:36:09.664Z,43.88
2024-02-13T21:38:14.373Z,36.10
2024-02-13T21:40:16.262Z,22.20
2024-02-13T21:42:18.002Z,16.40
2024-02-13T21:44:19.551Z,20.73
2024-02-13T21:46:21.038Z,19.10
2024-02-13T21:48:22.919Z,21.17
2024-02-13T21:50:24.761Z,19.75
2024-02-13T21:52:26.289Z,26.90
2024-02-13T21:54:28.079Z,25.85
2024-02-13T21:56:29.711Z,20.90
2024-02-13T21:58:31.241Z,26.60
2024-02-13T22:00:32.981Z,36.22
2024-02-13T22:02:34.887Z,31.77
2024-02-13T22:04:36.428Z,26.58
2024-02-13T22:06:38.025Z,17.17
2024-02-13T22:08:39.737Z,19.60
2024-02-13T22:10:41.212Z,18.35
2024-02-13T22:12:45.247Z,19.30
2024-02-13T22:14:48.669Z,27.85
2024-02-13T22:16:50.129Z,25.05
2024-02-13T22:18:51.979Z,53.92
2024-02-13T22:20:54.095Z,28.55
2024-02-13T22:22:55.718Z,38.33
2024-02-13T22:24:57.373Z,52.65
2024-02-13T22:26:59.317Z,27.52
2024-02-13T22:29:00.834Z,44.60
2024-02-13T22:31:02.468Z,26.15
2024-02-13T22:33:04.257Z,35.95
2024-02-13T22:35:06.404Z,29.35
2024-02-13T22:37:08.100Z,27.90
2024-02-13T22:39:09.848Z,124.40
2024-02-13T22:41:11.597Z,62.88
2024-02-13T22:43:13.091Z,41.60
2024-02-13T22:45:14.650Z,31.88
2024-02-13T22:47:16.262Z,20.67
2024-02-13T22:49:17.767Z,21.30
2024-02-13T22:51:19.501Z,21.65
2024-02-13T22:53:21.102Z,24.38
2024-02-13T22:55:22.683Z,22.55
2024-02-13T22:57:24.420Z,37.83
2024-02-13T22:59:26.042Z,68.82
2024-02-13T23:01:27.647Z,75.85
2024-02-13T23:03:35.413Z,98.68
2024-02-13T23:05:37.124Z,209.50
2024-02-13T23:07:45.328Z,208.70
2024-02-13T23:09:47.331Z,30.75
2024-02-13T23:11:48.976Z,33.95
2024-02-13T23:13:51.532Z,46.95
2024-02-13T23:15:53.717Z,47.08
2024-02-13T23:17:55.515Z,54.47
2024-02-13T23:19:57.132Z,47.17
2024-02-13T23:21:58.757Z,55.75
2024-02-13T23:24:00.690Z,244.95
2024-02-13T23:26:02.390Z,175.85
2024-02-13T23:28:04.662Z,113.60
2024-02-13T23:30:07.314Z,108.22
2024-02-13T23:32:08.835Z,89.70
2024-02-13T23:34:10.672Z,73.60
2024-02-13T23:36:12.348Z,77.07
2024-02-13T23:38:13.938Z,69.03
2024-02-13T23:40:17.765Z,68.30
2024-02-13T23:42:19.420Z,49.70
2024-02-13T23:44:20.857Z,59.15
2024-02-13T23:46:22.476Z,48.45
2024-02-13T23:48:24.207Z,53.85
2024-02-13T23:50:25.804Z,55.35
2024-02-13T23:52:27.429Z,55.17
2024-02-13T23:54:29.006Z,61.92
2024-02-13T23:56:30.511Z,58.47
2024-02-13T23:58:32.260Z,47.20
